sensor_id;sensor_type;location;lat;lon;timestamp;P1;durP1;ratioP1;P2;durP2;ratioP2
69172;SDS011;56280;49.662;8.408;2023-07-02T00:02:21;4.90;;;2.30;;
69172;SDS011;56280;49.662;8.408;2023-07-02T00:04:47;4.50;;;2.50;;
69172;SDS011;56280;49.662;8.408;2023-07-02T00:07:12;4.27;;;2.10;;
69172;SDS011;56280;49.662;8.408;2023-07-02T00:09:37;4.68;;;2.50;;
69172;SDS011;56280;49.662;8.408;2023-07-02T00:12:03;4.35;;;2.17;;
69172;SDS011;56280;49.662;8.408;2023-07-02T00:14:28;4.95;;;2.30;;
69172;SDS011;56280;49.662;8.408;2023-07-02T00:16:53;4.43;;;2.10;;
69172;SDS011;56280;49.662;8.408;2023-07-02T00:19:19;5.73;;;2.10;;
69172;SDS011;56280;49.662;8.408;2023-07-02T00:21:44;5.47;;;2.47;;
69172;SDS011;56280;49.662;8.408;2023-07-02T00:24:10;5.67;;;2.20;;
69172;SDS011;56280;49.662;8.408;2023-07-02T00:26:35;5.00;;;2.13;;
69172;SDS011;56280;49.662;8.408;2023-07-02T00:29:02;4.30;;;2.10;;
69172;SDS011;56280;49.662;8.408;2023-07-02T00:31:29;3.53;;;1.85;;
69172;SDS011;56280;49.662;8.408;2023-07-02T00:33:54;4.33;;;2.10;;
69172;SDS011;56280;49.662;8.408;2023-07-02T00:36:20;4.83;;;2.00;;
69172;SDS011;56280;49.662;8.408;2023-07-02T00:38:45;5.00;;;2.00;;
69172;SDS011;56280;49.662;8.408;2023-07-02T00:41:15;4.90;;;1.95;;
69172;SDS011;56280;49.662;8.408;2023-07-02T00:43:41;4.30;;;2.00;;
69172;SDS011;56280;49.662;8.408;2023-07-02T00:46:16;4.80;;;1.97;;
69172;SDS011;56280;49.662;8.408;2023-07-02T00:48:43;5.10;;;1.95;;
69172;SDS011;56280;49.662;8.408;2023-07-02T00:51:11;5.40;;;2.20;;
69172;SDS011;56280;49.662;8.408;2023-07-02T00:53:39;4.90;;;2.05;;
69172;SDS011;56280;49.662;8.408;2023-07-02T00:56:05;5.53;;;2.10;;
69172;SDS011;56280;49.662;8.408;2023-07-02T00:58:30;4.40;;;2.10;;
69172;SDS011;56280;49.662;8.408;2023-07-02T01:00:56;4.72;;;2.00;;
69172;SDS011;56280;49.662;8.408;2023-07-02T01:03:21;7.07;;;2.13;;
69172;SDS011;56280;49.662;8.408;2023-07-02T01:05:47;5.07;;;2.10;;
69172;SDS011;56280;49.662;8.408;2023-07-02T01:08:12;5.25;;;2.20;;
69172;SDS011;56280;49.662;8.408;2023-07-02T01:10:38;5.27;;;2.30;;
69172;SDS011;56280;49.662;8.408;2023-07-02T01:13:08;5.47;;;2.20;;
69172;SDS011;56280;49.662;8.408;2023-07-02T01:15:40;5.70;;;2.50;;
69172;SDS011;56280;49.662;8.408;2023-07-02T01:18:07;7.05;;;2.72;;
69172;SDS011;56280;49.662;8.408;2023-07-02T01:20:33;5.53;;;2.40;;
69172;SDS011;56280;49.662;8.408;2023-07-02T01:23:00;5.07;;;2.38;;
69172;SDS011;56280;49.662;8.408;2023-07-02T01:25:28;4.80;;;2.30;;
69172;SDS011;56280;49.662;8.408;2023-07-02T01:27:54;4.97;;;2.55;;
69172;SDS011;56280;49.662;8.408;2023-07-02T01:30:20;5.03;;;2.17;;
69172;SDS011;56280;49.662;8.408;2023-07-02T01:32:46;5.27;;;2.70;;
69172;SDS011;56280;49.662;8.408;2023-07-02T01:35:11;5.43;;;2.50;;
69172;SDS011;56280;49.662;8.408;2023-07-02T01:37:36;5.80;;;2.65;;
69172;SDS011;56280;49.662;8.408;2023-07-02T01:40:06;5.97;;;2.67;;
69172;SDS011;56280;49.662;8.408;2023-07-02T01:42:33;4.45;;;2.47;;
69172;SDS011;56280;49.662;8.408;2023-07-02T01:44:59;5.00;;;2.90;;
69172;SDS011;56280;49.662;8.408;2023-07-02T01:47:24;4.97;;;2.77;;
69172;SDS011;56280;49.662;8.408;2023-07-02T01:49:49;5.83;;;2.50;;
69172;SDS011;56280;49.662;8.408;2023-07-02T01:52:15;5.87;;;2.73;;
69172;SDS011;56280;49.662;8.408;2023-07-02T01:54:41;6.63;;;2.97;;
69172;SDS011;56280;49.662;8.408;2023-07-02T01:57:07;5.70;;;2.92;;
69172;SDS011;56280;49.662;8.408;2023-07-02T01:59:33;6.77;;;3.10;;
69172;SDS011;56280;49.662;8.408;2023-07-02T02:01:59;6.60;;;3.08;;
69172;SDS011;56280;49.662;8.408;2023-07-02T02:04:24;6.53;;;3.33;;
69172;SDS011;56280;49.662;8.408;2023-07-02T02:06:49;7.10;;;3.23;;
69172;SDS011;56280;49.662;8.408;2023-07-02T02:09:15;6.40;;;2.90;;
69172;SDS011;56280;49.662;8.408;2023-07-02T02:11:41;5.07;;;2.70;;
69172;SDS011;56280;49.662;8.408;2023-07-02T02:14:08;5.40;;;2.85;;
69172;SDS011;56280;49.662;8.408;2023-07-02T02:16:33;5.70;;;2.50;;
69172;SDS011;56280;49.662;8.408;2023-07-02T02:18:59;6.40;;;2.60;;
69172;SDS011;56280;49.662;8.408;2023-07-02T02:21:25;5.43;;;2.85;;
69172;SDS011;56280;49.662;8.408;2023-07-02T02:23:51;6.78;;;3.00;;
69172;SDS011;56280;49.662;8.408;2023-07-02T02:26:16;6.60;;;3.30;;
69172;SDS011;56280;49.662;8.408;2023-07-02T02:28:41;6.60;;;3.50;;
69172;SDS011;56280;49.662;8.408;2023-07-02T02:31:07;9.80;;;3.70;;
69172;SDS011;56280;49.662;8.408;2023-07-02T02:33:33;8.87;;;4.00;;
69172;SDS011;56280;49.662;8.408;2023-07-02T02:36:00;7.55;;;3.90;;
69172;SDS011;56280;49.662;8.408;2023-07-02T02:38:25;8.33;;;3.97;;
69172;SDS011;56280;49.662;8.408;2023-07-02T02:40:50;7.63;;;3.60;;
69172;SDS011;56280;49.662;8.408;2023-07-02T02:43:16;7.60;;;3.50;;
69172;SDS011;56280;49.662;8.408;2023-07-02T02:45:44;6.20;;;3.20;;
69172;SDS011;56280;49.662;8.408;2023-07-02T02:48:09;7.15;;;3.10;;
69172;SDS011;56280;49.662;8.408;2023-07-02T02:50:35;7.00;;;3.20;;
69172;SDS011;56280;49.662;8.408;2023-07-02T02:53:02;5.93;;;2.90;;
69172;SDS011;56280;49.662;8.408;2023-07-02T02:55:27;6.30;;;3.30;;
69172;SDS011;56280;49.662;8.408;2023-07-02T02:57:53;7.73;;;3.37;;
69172;SDS011;56280;49.662;8.408;2023-07-02T03:00:18;8.87;;;3.70;;
69172;SDS011;56280;49.662;8.408;2023-07-02T03:02:43;8.60;;;3.93;;
69172;SDS011;56280;49.662;8.408;2023-07-02T03:05:08;8.60;;;3.83;;
69172;SDS011;56280;49.662;8.408;2023-07-02T03:07:34;8.07;;;3.87;;
69172;SDS011;56280;49.662;8.408;2023-07-02T03:10:00;9.20;;;4.30;;
69172;SDS011;56280;49.662;8.408;2023-07-02T03:12:26;7.43;;;4.00;;
69172;SDS011;56280;49.662;8.408;2023-07-02T03:14:51;8.73;;;4.23;;
69172;SDS011;56280;49.662;8.408;2023-07-02T03:17:19;9.07;;;4.43;;
69172;SDS011;56280;49.662;8.408;2023-07-02T03:19:45;8.97;;;4.27;;
69172;SDS011;56280;49.662;8.408;2023-07-02T03:22:10;8.73;;;4.20;;
69172;SDS011;56280;49.662;8.408;2023-07-02T03:24:35;9.73;;;4.10;;
69172;SDS011;56280;49.662;8.408;2023-07-02T03:27:01;8.80;;;4.20;;
69172;SDS011;56280;49.662;8.408;2023-07-02T03:29:26;9.70;;;4.50;;
69172;SDS011;56280;49.662;8.408;2023-07-02T03:31:51;10.17;;;4.40;;
69172;SDS011;56280;49.662;8.408;2023-07-02T03:34:17;10.47;;;4.43;;
69172;SDS011;56280;49.662;8.408;2023-07-02T03:36:42;10.67;;;4.53;;
69172;SDS011;56280;49.662;8.408;2023-07-02T03:39:08;9.47;;;4.80;;
69172;SDS011;56280;49.662;8.408;2023-07-02T03:41:34;8.63;;;4.50;;
69172;SDS011;56280;49.662;8.408;2023-07-02T03:43:59;9.43;;;4.43;;
69172;SDS011;56280;49.662;8.408;2023-07-02T03:46:24;10.83;;;4.90;;
69172;SDS011;56280;49.662;8.408;2023-07-02T03:48:50;9.27;;;4.77;;
69172;SDS011;56280;49.662;8.408;2023-07-02T03:51:15;10.17;;;4.30;;
69172;SDS011;56280;49.662;8.408;2023-07-02T03:53:41;9.53;;;4.60;;
69172;SDS011;56280;49.662;8.408;2023-07-02T03:56:06;9.15;;;4.60;;
69172;SDS011;56280;49.662;8.408;2023-07-02T03:58:31;9.30;;;4.27;;
69172;SDS011;56280;49.662;8.408;2023-07-02T04:00:57;8.47;;;4.60;;
69172;SDS011;56280;49.662;8.408;2023-07-02T04:03:22;9.00;;;4.70;;
69172;SDS011;56280;49.662;8.408;2023-07-02T04:05:47;10.80;;;4.50;;
69172;SDS011;56280;49.662;8.408;2023-07-02T04:08:13;9.07;;;4.60;;
69172;SDS011;56280;49.662;8.408;2023-07-02T04:10:38;10.20;;;4.90;;
69172;SDS011;56280;49.662;8.408;2023-07-02T04:13:03;10.70;;;4.93;;
69172;SDS011;56280;49.662;8.408;2023-07-02T04:15:28;13.63;;;4.67;;
69172;SDS011;56280;49.662;8.408;2023-07-02T04:17:54;10.18;;;4.85;;
69172;SDS011;56280;49.662;8.408;2023-07-02T04:20:19;11.00;;;4.78;;
69172;SDS011;56280;49.662;8.408;2023-07-02T04:22:45;10.05;;;5.03;;
69172;SDS011;56280;49.662;8.408;2023-07-02T04:25:11;9.77;;;5.10;;
69172;SDS011;56280;49.662;8.408;2023-07-02T04:27:40;9.77;;;5.00;;
69172;SDS011;56280;49.662;8.408;2023-07-02T04:30:06;10.23;;;4.90;;
69172;SDS011;56280;49.662;8.408;2023-07-02T04:32:33;11.95;;;4.80;;
69172;SDS011;56280;49.662;8.408;2023-07-02T04:34:58;10.83;;;4.87;;
69172;SDS011;56280;49.662;8.408;2023-07-02T04:37:24;11.73;;;5.00;;
69172;SDS011;56280;49.662;8.408;2023-07-02T04:39:49;12.63;;;4.90;;
69172;SDS011;56280;49.662;8.408;2023-07-02T04:42:14;12.53;;;4.60;;
69172;SDS011;56280;49.662;8.408;2023-07-02T04:44:40;11.60;;;4.93;;
69172;SDS011;56280;49.662;8.408;2023-07-02T04:47:08;10.70;;;4.80;;
69172;SDS011;56280;49.662;8.408;2023-07-02T04:49:33;10.47;;;5.03;;
69172;SDS011;56280;49.662;8.408;2023-07-02T04:51:58;10.37;;;4.77;;
69172;SDS011;56280;49.662;8.408;2023-07-02T04:54:24;11.10;;;4.90;;
69172;SDS011;56280;49.662;8.408;2023-07-02T04:56:49;9.80;;;5.30;;
69172;SDS011;56280;49.662;8.408;2023-07-02T04:59:15;11.03;;;4.97;;
69172;SDS011;56280;49.662;8.408;2023-07-02T05:01:40;10.80;;;5.20;;
69172;SDS011;56280;49.662;8.408;2023-07-02T05:04:06;11.00;;;5.10;;
69172;SDS011;56280;49.662;8.408;2023-07-02T05:06:31;9.40;;;5.13;;
69172;SDS011;56280;49.662;8.408;2023-07-02T05:08:56;11.93;;;5.23;;
69172;SDS011;56280;49.662;8.408;2023-07-02T05:11:22;11.00;;;5.33;;
69172;SDS011;56280;49.662;8.408;2023-07-02T05:13:47;10.67;;;5.30;;
69172;SDS011;56280;49.662;8.408;2023-07-02T05:16:12;9.73;;;5.20;;
69172;SDS011;56280;49.662;8.408;2023-07-02T05:18:38;10.63;;;5.20;;
69172;SDS011;56280;49.662;8.408;2023-07-02T05:21:03;12.40;;;5.23;;
69172;SDS011;56280;49.662;8.408;2023-07-02T05:23:29;12.53;;;5.40;;
69172;SDS011;56280;49.662;8.408;2023-07-02T05:25:54;12.87;;;5.40;;
69172;SDS011;56280;49.662;8.408;2023-07-02T05:28:19;13.63;;;4.97;;
69172;SDS011;56280;49.662;8.408;2023-07-02T05:30:44;11.70;;;5.50;;
69172;SDS011;56280;49.662;8.408;2023-07-02T05:33:10;10.50;;;5.30;;
69172;SDS011;56280;49.662;8.408;2023-07-02T05:35:35;12.37;;;5.37;;
69172;SDS011;56280;49.662;8.408;2023-07-02T05:38:00;11.50;;;5.60;;
69172;SDS011;56280;49.662;8.408;2023-07-02T05:40:26;10.53;;;5.60;;
69172;SDS011;56280;49.662;8.408;2023-07-02T05:42:51;11.13;;;5.63;;
69172;SDS011;56280;49.662;8.408;2023-07-02T05:45:16;10.82;;;6.00;;
69172;SDS011;56280;49.662;8.408;2023-07-02T05:47:41;11.00;;;5.73;;
69172;SDS011;56280;49.662;8.408;2023-07-02T05:50:07;12.03;;;6.30;;
69172;SDS011;56280;49.662;8.408;2023-07-02T05:52:33;13.38;;;6.05;;
69172;SDS011;56280;49.662;8.408;2023-07-02T05:54:58;11.50;;;6.03;;
69172;SDS011;56280;49.662;8.408;2023-07-02T05:57:23;14.30;;;6.10;;
69172;SDS011;56280;49.662;8.408;2023-07-02T05:59:48;13.13;;;6.30;;
69172;SDS011;56280;49.662;8.408;2023-07-02T06:02:14;14.13;;;6.57;;
69172;SDS011;56280;49.662;8.408;2023-07-02T06:04:39;14.53;;;6.77;;
69172;SDS011;56280;49.662;8.408;2023-07-02T06:07:04;18.87;;;7.03;;
69172;SDS011;56280;49.662;8.408;2023-07-02T06:09:29;14.60;;;6.60;;
69172;SDS011;56280;49.662;8.408;2023-07-02T06:11:55;14.30;;;6.80;;
69172;SDS011;56280;49.662;8.408;2023-07-02T06:14:20;16.67;;;6.73;;
69172;SDS011;56280;49.662;8.408;2023-07-02T06:16:46;13.17;;;7.10;;
69172;SDS011;56280;49.662;8.408;2023-07-02T06:19:12;13.73;;;7.00;;
69172;SDS011;56280;49.662;8.408;2023-07-02T06:21:37;15.57;;;7.63;;
69172;SDS011;56280;49.662;8.408;2023-07-02T06:24:02;16.53;;;7.87;;
69172;SDS011;56280;49.662;8.408;2023-07-02T06:26:28;14.20;;;6.80;;
69172;SDS011;56280;49.662;8.408;2023-07-02T06:28:53;17.47;;;7.70;;
69172;SDS011;56280;49.662;8.408;2023-07-02T06:31:18;16.47;;;8.10;;
69172;SDS011;56280;49.662;8.408;2023-07-02T06:33:44;15.87;;;7.73;;
69172;SDS011;56280;49.662;8.408;2023-07-02T06:36:10;18.30;;;8.40;;
69172;SDS011;56280;49.662;8.408;2023-07-02T06:38:35;16.15;;;8.18;;
69172;SDS011;56280;49.662;8.408;2023-07-02T06:41:01;16.80;;;8.90;;
69172;SDS011;56280;49.662;8.408;2023-07-02T06:43:26;16.42;;;8.23;;
69172;SDS011;56280;49.662;8.408;2023-07-02T06:45:51;16.97;;;9.00;;
69172;SDS011;56280;49.662;8.408;2023-07-02T06:48:16;16.83;;;9.33;;
69172;SDS011;56280;49.662;8.408;2023-07-02T06:50:46;18.08;;;9.02;;
69172;SDS011;56280;49.662;8.408;2023-07-02T06:53:11;16.98;;;8.75;;
69172;SDS011;56280;49.662;8.408;2023-07-02T06:55:37;15.77;;;8.45;;
69172;SDS011;56280;49.662;8.408;2023-07-02T06:58:03;16.83;;;8.50;;
69172;SDS011;56280;49.662;8.408;2023-07-02T07:00:31;26.83;;;10.87;;
69172;SDS011;56280;49.662;8.408;2023-07-02T07:02:57;30.73;;;11.50;;
69172;SDS011;56280;49.662;8.408;2023-07-02T07:05:22;22.00;;;9.43;;
69172;SDS011;56280;49.662;8.408;2023-07-02T07:07:48;17.67;;;9.43;;
69172;SDS011;56280;49.662;8.408;2023-07-02T07:10:13;18.10;;;9.23;;
69172;SDS011;56280;49.662;8.408;2023-07-02T07:12:38;17.43;;;9.10;;
69172;SDS011;56280;49.662;8.408;2023-07-02T07:15:04;17.10;;;8.60;;
69172;SDS011;56280;49.662;8.408;2023-07-02T07:17:29;17.25;;;8.85;;
69172;SDS011;56280;49.662;8.408;2023-07-02T07:19:55;18.33;;;9.33;;
69172;SDS011;56280;49.662;8.408;2023-07-02T07:22:20;17.80;;;9.00;;
69172;SDS011;56280;49.662;8.408;2023-07-02T07:24:45;16.90;;;9.10;;
69172;SDS011;56280;49.662;8.408;2023-07-02T07:27:10;16.20;;;8.67;;
69172;SDS011;56280;49.662;8.408;2023-07-02T07:29:36;14.07;;;8.20;;
69172;SDS011;56280;49.662;8.408;2023-07-02T07:32:01;16.63;;;8.48;;
69172;SDS011;56280;49.662;8.408;2023-07-02T07:34:27;16.13;;;8.43;;
69172;SDS011;56280;49.662;8.408;2023-07-02T07:36:52;15.30;;;8.50;;
69172;SDS011;56280;49.662;8.408;2023-07-02T07:39:18;17.83;;;8.80;;
69172;SDS011;56280;49.662;8.408;2023-07-02T07:41:46;14.90;;;8.20;;
69172;SDS011;56280;49.662;8.408;2023-07-02T07:44:13;17.13;;;8.80;;
69172;SDS011;56280;49.662;8.408;2023-07-02T07:46:38;18.67;;;9.00;;
69172;SDS011;56280;49.662;8.408;2023-07-02T07:49:03;15.63;;;8.40;;
69172;SDS011;56280;49.662;8.408;2023-07-02T07:51:28;17.07;;;9.10;;
69172;SDS011;56280;49.662;8.408;2023-07-02T07:53:54;18.70;;;9.03;;
69172;SDS011;56280;49.662;8.408;2023-07-02T07:56:19;17.60;;;9.20;;
69172;SDS011;56280;49.662;8.408;2023-07-02T07:58:44;17.83;;;9.50;;
69172;SDS011;56280;49.662;8.408;2023-07-02T08:01:10;18.97;;;8.90;;
69172;SDS011;56280;49.662;8.408;2023-07-02T08:03:36;16.77;;;8.87;;
69172;SDS011;56280;49.662;8.408;2023-07-02T08:06:03;17.65;;;9.20;;
69172;SDS011;56280;49.662;8.408;2023-07-02T08:08:29;19.07;;;9.93;;
69172;SDS011;56280;49.662;8.408;2023-07-02T08:10:54;17.73;;;9.77;;
69172;SDS011;56280;49.662;8.408;2023-07-02T08:13:19;18.30;;;9.53;;
69172;SDS011;56280;49.662;8.408;2023-07-02T08:15:44;16.77;;;9.60;;
69172;SDS011;56280;49.662;8.408;2023-07-02T08:18:10;17.53;;;9.73;;
69172;SDS011;56280;49.662;8.408;2023-07-02T08:20:36;18.10;;;10.10;;
69172;SDS011;56280;49.662;8.408;2023-07-02T08:23:02;19.40;;;10.60;;
69172;SDS011;56280;49.662;8.408;2023-07-02T08:25:27;20.57;;;10.90;;
69172;SDS011;56280;49.662;8.408;2023-07-02T08:27:53;18.05;;;10.25;;
69172;SDS011;56280;49.662;8.408;2023-07-02T08:30:19;19.70;;;10.20;;
69172;SDS011;56280;49.662;8.408;2023-07-02T08:32:45;17.90;;;10.00;;
69172;SDS011;56280;49.662;8.408;2023-07-02T08:35:11;20.80;;;11.07;;
69172;SDS011;56280;49.662;8.408;2023-07-02T08:37:36;19.37;;;10.67;;
69172;SDS011;56280;49.662;8.408;2023-07-02T08:40:01;18.63;;;10.65;;
69172;SDS011;56280;49.662;8.408;2023-07-02T08:42:27;18.30;;;10.20;;
69172;SDS011;56280;49.662;8.408;2023-07-02T08:44:54;19.13;;;10.85;;
69172;SDS011;56280;49.662;8.408;2023-07-02T08:47:22;16.83;;;9.70;;
69172;SDS011;56280;49.662;8.408;2023-07-02T08:49:47;16.13;;;9.10;;
69172;SDS011;56280;49.662;8.408;2023-07-02T08:52:13;16.75;;;9.15;;
69172;SDS011;56280;49.662;8.408;2023-07-02T08:54:38;17.57;;;10.13;;
69172;SDS011;56280;49.662;8.408;2023-07-02T08:57:04;17.00;;;10.30;;
69172;SDS011;56280;49.662;8.408;2023-07-02T08:59:30;17.33;;;10.35;;
69172;SDS011;56280;49.662;8.408;2023-07-02T09:01:56;19.20;;;9.70;;
69172;SDS011;56280;49.662;8.408;2023-07-02T09:04:22;17.13;;;10.13;;
69172;SDS011;56280;49.662;8.408;2023-07-02T09:06:49;20.48;;;10.52;;
69172;SDS011;56280;49.662;8.408;2023-07-02T09:09:16;17.70;;;9.40;;
69172;SDS011;56280;49.662;8.408;2023-07-02T09:11:48;16.40;;;9.15;;
69172;SDS011;56280;49.662;8.408;2023-07-02T09:14:28;16.73;;;9.02;;
69172;SDS011;56280;49.662;8.408;2023-07-02T09:17:07;19.08;;;9.77;;
69172;SDS011;56280;49.662;8.408;2023-07-02T09:19:34;18.25;;;10.07;;
69172;SDS011;56280;49.662;8.408;2023-07-02T09:22:00;19.90;;;10.00;;
69172;SDS011;56280;49.662;8.408;2023-07-02T09:24:29;17.53;;;9.63;;
69172;SDS011;56280;49.662;8.408;2023-07-02T09:26:56;16.43;;;9.10;;
69172;SDS011;56280;49.662;8.408;2023-07-02T09:32:02;16.70;;;8.73;;
69172;SDS011;56280;49.662;8.408;2023-07-02T09:34:29;17.47;;;9.53;;
69172;SDS011;56280;49.662;8.408;2023-07-02T09:36:56;20.27;;;11.65;;
69172;SDS011;56280;49.662;8.408;2023-07-02T09:39:26;21.05;;;11.70;;
69172;SDS011;56280;49.662;8.408;2023-07-02T09:41:54;20.87;;;11.53;;
69172;SDS011;56280;49.662;8.408;2023-07-02T09:44:21;20.67;;;10.13;;
69172;SDS011;56280;49.662;8.408;2023-07-02T09:46:49;19.45;;;10.45;;
69172;SDS011;56280;49.662;8.408;2023-07-02T09:49:20;20.73;;;11.67;;
69172;SDS011;56280;49.662;8.408;2023-07-02T09:51:48;19.40;;;11.27;;
69172;SDS011;56280;49.662;8.408;2023-07-02T09:54:14;18.60;;;10.85;;
69172;SDS011;56280;49.662;8.408;2023-07-02T09:56:40;18.33;;;9.63;;
69172;SDS011;56280;49.662;8.408;2023-07-02T09:59:05;18.57;;;9.97;;
69172;SDS011;56280;49.662;8.408;2023-07-02T10:01:30;17.70;;;9.23;;
69172;SDS011;56280;49.662;8.408;2023-07-02T10:03:56;17.93;;;10.60;;
69172;SDS011;56280;49.662;8.408;2023-07-02T10:06:21;19.27;;;11.57;;
69172;SDS011;56280;49.662;8.408;2023-07-02T10:08:53;20.57;;;10.63;;
69172;SDS011;56280;49.662;8.408;2023-07-02T10:11:19;17.88;;;9.80;;
69172;SDS011;56280;49.662;8.408;2023-07-02T10:13:45;17.63;;;9.60;;
69172;SDS011;56280;49.662;8.408;2023-07-02T10:16:10;17.87;;;10.40;;
69172;SDS011;56280;49.662;8.408;2023-07-02T10:18:35;17.23;;;10.67;;
69172;SDS011;56280;49.662;8.408;2023-07-02T10:21:12;19.77;;;10.80;;
69172;SDS011;56280;49.662;8.408;2023-07-02T10:23:39;18.25;;;10.45;;
69172;SDS011;56280;49.662;8.408;2023-07-02T10:26:17;20.33;;;10.80;;
69172;SDS011;56280;49.662;8.408;2023-07-02T10:28:43;21.80;;;12.07;;
69172;SDS011;56280;49.662;8.408;2023-07-02T10:31:23;21.02;;;11.63;;
69172;SDS011;56280;49.662;8.408;2023-07-02T10:33:49;20.57;;;11.67;;
69172;SDS011;56280;49.662;8.408;2023-07-02T10:36:18;23.47;;;12.37;;
69172;SDS011;56280;49.662;8.408;2023-07-02T10:38:45;22.47;;;12.47;;
69172;SDS011;56280;49.662;8.408;2023-07-02T10:41:11;21.27;;;12.88;;
69172;SDS011;56280;49.662;8.408;2023-07-02T10:43:36;20.47;;;12.07;;
69172;SDS011;56280;49.662;8.408;2023-07-02T10:46:01;20.20;;;11.70;;
69172;SDS011;56280;49.662;8.408;2023-07-02T10:48:27;18.80;;;12.03;;
69172;SDS011;56280;49.662;8.408;2023-07-02T10:50:52;21.43;;;12.07;;
69172;SDS011;56280;49.662;8.408;2023-07-02T10:53:19;19.73;;;11.77;;
69172;SDS011;56280;49.662;8.408;2023-07-02T10:55:45;20.53;;;11.93;;
69172;SDS011;56280;49.662;8.408;2023-07-02T10:58:18;20.92;;;11.90;;
69172;SDS011;56280;49.662;8.408;2023-07-02T11:00:44;21.90;;;12.20;;
69172;SDS011;56280;49.662;8.408;2023-07-02T11:03:17;22.50;;;12.47;;
69172;SDS011;56280;49.662;8.408;2023-07-02T11:05:46;21.35;;;12.25;;
69172;SDS011;56280;49.662;8.408;2023-07-02T11:08:13;20.45;;;11.93;;
69172;SDS011;56280;49.662;8.408;2023-07-02T11:10:38;21.55;;;12.02;;
69172;SDS011;56280;49.662;8.408;2023-07-02T11:13:13;19.90;;;11.43;;
69172;SDS011;56280;49.662;8.408;2023-07-02T11:15:40;22.67;;;12.98;;
69172;SDS011;56280;49.662;8.408;2023-07-02T11:18:13;20.90;;;12.55;;
69172;SDS011;56280;49.662;8.408;2023-07-02T11:20:40;19.37;;;12.10;;
69172;SDS011;56280;49.662;8.408;2023-07-02T11:23:16;23.70;;;12.90;;
69172;SDS011;56280;49.662;8.408;2023-07-02T11:26:02;21.25;;;12.25;;
69172;SDS011;56280;49.662;8.408;2023-07-02T11:28:29;19.88;;;12.02;;
69172;SDS011;56280;49.662;8.408;2023-07-02T11:30:56;18.88;;;11.40;;
69172;SDS011;56280;49.662;8.408;2023-07-02T11:33:36;19.67;;;11.70;;
69172;SDS011;56280;49.662;8.408;2023-07-02T11:36:02;19.27;;;11.20;;
69172;SDS011;56280;49.662;8.408;2023-07-02T11:38:28;21.10;;;12.20;;
69172;SDS011;56280;49.662;8.408;2023-07-02T11:40:54;21.63;;;12.43;;
69172;SDS011;56280;49.662;8.408;2023-07-02T11:43:19;20.90;;;12.10;;
69172;SDS011;56280;49.662;8.408;2023-07-02T11:45:44;20.33;;;11.93;;
69172;SDS011;56280;49.662;8.408;2023-07-02T11:48:10;20.00;;;11.50;;
69172;SDS011;56280;49.662;8.408;2023-07-02T11:50:35;21.23;;;11.63;;
69172;SDS011;56280;49.662;8.408;2023-07-02T11:53:00;19.30;;;11.30;;
69172;SDS011;56280;49.662;8.408;2023-07-02T11:55:25;20.43;;;10.97;;
69172;SDS011;56280;49.662;8.408;2023-07-02T11:57:51;21.23;;;11.73;;
69172;SDS011;56280;49.662;8.408;2023-07-02T12:00:16;19.67;;;11.10;;
69172;SDS011;56280;49.662;8.408;2023-07-02T12:02:42;19.63;;;11.37;;
69172;SDS011;56280;49.662;8.408;2023-07-02T12:05:07;18.57;;;10.63;;
69172;SDS011;56280;49.662;8.408;2023-07-02T12:07:33;20.48;;;11.10;;
69172;SDS011;56280;49.662;8.408;2023-07-02T12:09:59;18.42;;;10.48;;
69172;SDS011;56280;49.662;8.408;2023-07-02T12:12:25;19.97;;;10.57;;
69172;SDS011;56280;49.662;8.408;2023-07-02T12:14:50;18.03;;;10.50;;
69172;SDS011;56280;49.662;8.408;2023-07-02T12:17:15;18.40;;;10.97;;
69172;SDS011;56280;49.662;8.408;2023-07-02T12:19:40;19.80;;;11.03;;
69172;SDS011;56280;49.662;8.408;2023-07-02T12:22:06;18.20;;;10.70;;
69172;SDS011;56280;49.662;8.408;2023-07-02T12:24:32;19.10;;;10.55;;
69172;SDS011;56280;49.662;8.408;2023-07-02T12:26:57;20.80;;;11.37;;
69172;SDS011;56280;49.662;8.408;2023-07-02T12:29:23;23.50;;;11.63;;
69172;SDS011;56280;49.662;8.408;2023-07-02T12:31:48;21.07;;;11.27;;
69172;SDS011;56280;49.662;8.408;2023-07-02T12:34:13;18.57;;;11.20;;
69172;SDS011;56280;49.662;8.408;2023-07-02T12:36:38;20.30;;;11.47;;
69172;SDS011;56280;49.662;8.408;2023-07-02T12:39:04;19.87;;;11.67;;
69172;SDS011;56280;49.662;8.408;2023-07-02T12:41:29;19.23;;;11.47;;
69172;SDS011;56280;49.662;8.408;2023-07-02T12:43:55;20.93;;;11.70;;
69172;SDS011;56280;49.662;8.408;2023-07-02T12:46:21;21.05;;;11.60;;
69172;SDS011;56280;49.662;8.408;2023-07-02T12:48:46;19.07;;;10.90;;
69172;SDS011;56280;49.662;8.408;2023-07-02T12:51:11;20.50;;;11.80;;
69172;SDS011;56280;49.662;8.408;2023-07-02T12:53:37;21.70;;;11.50;;
69172;SDS011;56280;49.662;8.408;2023-07-02T12:56:02;21.00;;;11.77;;
69172;SDS011;56280;49.662;8.408;2023-07-02T12:58:28;20.60;;;11.60;;
69172;SDS011;56280;49.662;8.408;2023-07-02T13:00:53;21.20;;;12.30;;
69172;SDS011;56280;49.662;8.408;2023-07-02T13:03:20;21.10;;;12.02;;
69172;SDS011;56280;49.662;8.408;2023-07-02T13:05:48;22.10;;;12.70;;
69172;SDS011;56280;49.662;8.408;2023-07-02T13:08:13;21.10;;;12.13;;
69172;SDS011;56280;49.662;8.408;2023-07-02T13:10:38;20.37;;;12.27;;
69172;SDS011;56280;49.662;8.408;2023-07-02T13:13:04;22.75;;;12.30;;
69172;SDS011;56280;49.662;8.408;2023-07-02T13:15:29;22.63;;;12.07;;
69172;SDS011;56280;49.662;8.408;2023-07-02T13:17:54;20.42;;;12.13;;
69172;SDS011;56280;49.662;8.408;2023-07-02T13:20:20;22.20;;;12.70;;
69172;SDS011;56280;49.662;8.408;2023-07-02T13:22:45;24.27;;;12.93;;
69172;SDS011;56280;49.662;8.408;2023-07-02T13:25:10;22.50;;;12.63;;
69172;SDS011;56280;49.662;8.408;2023-07-02T13:27:36;22.37;;;12.73;;
69172;SDS011;56280;49.662;8.408;2023-07-02T13:30:02;21.42;;;12.82;;
69172;SDS011;56280;49.662;8.408;2023-07-02T13:32:28;20.93;;;12.27;;
69172;SDS011;56280;49.662;8.408;2023-07-02T13:34:53;22.33;;;12.80;;
69172;SDS011;56280;49.662;8.408;2023-07-02T13:37:18;24.33;;;12.70;;
69172;SDS011;56280;49.662;8.408;2023-07-02T13:39:44;23.03;;;12.70;;
69172;SDS011;56280;49.662;8.408;2023-07-02T13:42:11;23.35;;;13.15;;
69172;SDS011;56280;49.662;8.408;2023-07-02T13:44:36;21.53;;;12.73;;
69172;SDS011;56280;49.662;8.408;2023-07-02T13:47:01;22.27;;;12.97;;
69172;SDS011;56280;49.662;8.408;2023-07-02T13:49:27;23.57;;;12.70;;
69172;SDS011;56280;49.662;8.408;2023-07-02T13:51:52;22.33;;;12.43;;
69172;SDS011;56280;49.662;8.408;2023-07-02T13:54:18;21.80;;;12.90;;
69172;SDS011;56280;49.662;8.408;2023-07-02T13:56:46;21.92;;;12.32;;
69172;SDS011;56280;49.662;8.408;2023-07-02T13:59:12;20.52;;;12.00;;
69172;SDS011;56280;49.662;8.408;2023-07-02T14:01:37;21.73;;;12.40;;
69172;SDS011;56280;49.662;8.408;2023-07-02T14:04:03;22.60;;;11.57;;
69172;SDS011;56280;49.662;8.408;2023-07-02T14:06:29;22.07;;;12.33;;
69172;SDS011;56280;49.662;8.408;2023-07-02T14:08:55;22.25;;;12.25;;
69172;SDS011;56280;49.662;8.408;2023-07-02T14:11:21;21.90;;;11.97;;
69172;SDS011;56280;49.662;8.408;2023-07-02T14:13:47;20.67;;;12.47;;
69172;SDS011;56280;49.662;8.408;2023-07-02T14:16:13;21.23;;;11.77;;
69172;SDS011;56280;49.662;8.408;2023-07-02T14:18:38;23.85;;;11.90;;
69172;SDS011;56280;49.662;8.408;2023-07-02T14:21:04;20.37;;;11.77;;
69172;SDS011;56280;49.662;8.408;2023-07-02T14:23:29;20.90;;;12.00;;
69172;SDS011;56280;49.662;8.408;2023-07-02T14:25:54;20.67;;;11.73;;
69172;SDS011;56280;49.662;8.408;2023-07-02T14:28:20;21.80;;;11.83;;
69172;SDS011;56280;49.662;8.408;2023-07-02T14:30:45;20.83;;;11.20;;